sensor_id;sensor_type;location;lat;lon;timestamp;temperature;humidity
18160;DHT22;9205;52.032;4.314;2023-04-03T00:00:54;5.90;99.90
18160;DHT22;9205;52.032;4.314;2023-04-03T00:03:22;6.00;99.90
18160;DHT22;9205;52.032;4.314;2023-04-03T00:05:51;5.90;99.90
18160;DHT22;9205;52.032;4.314;2023-04-03T00:08:19;5.90;99.90
18160;DHT22;9205;52.032;4.314;2023-04-03T00:10:47;5.90;99.90
18160;DHT22;9205;52.032;4.314;2023-04-03T00:13:14;5.90;1.00
18160;DHT22;9205;52.032;4.314;2023-04-03T00:15:42;5.80;1.00
18160;DHT22;9205;52.032;4.314;2023-04-03T00:18:09;5.90;1.00
18160;DHT22;9205;52.032;4.314;2023-04-03T00:20:36;5.90;1.00
18160;DHT22;9205;52.032;4.314;2023-04-03T00:23:05;5.80;99.90
18160;DHT22;9205;52.032;4.314;2023-04-03T00:25:33;5.80;1.00
18160;DHT22;9205;52.032;4.314;2023-04-03T00:28:01;5.80;1.00
18160;DHT22;9205;52.032;4.314;2023-04-03T00:30:30;5.70;1.00
18160;DHT22;9205;52.032;4.314;2023-04-03T00:32:57;5.70;99.90
18160;DHT22;9205;52.032;4.314;2023-04-03T00:35:26;5.70;1.00
18160;DHT22;9205;52.032;4.314;2023-04-03T00:37:55;5.70;1.00
18160;DHT22;9205;52.032;4.314;2023-04-03T00:40:25;5.70;1.00
18160;DHT22;9205;52.032;4.314;2023-04-03T00:42:56;5.70;1.00
18160;DHT22;9205;52.032;4.314;2023-04-03T00:45:33;5.70;1.00
18160;DHT22;9205;52.032;4.314;2023-04-03T00:48:04;5.70;1.00
18160;DHT22;9205;52.032;4.314;2023-04-03T00:50:36;5.60;1.00
18160;DHT22;9205;52.032;4.314;2023-04-03T00:53:08;5.60;1.00
18160;DHT22;9205;52.032;4.314;2023-04-03T00:55:41;5.60;1.00
18160;DHT22;9205;52.032;4.314;2023-04-03T00:58:10;5.50;1.00
18160;DHT22;9205;52.032;4.314;2023-04-03T01:00:41;5.50;1.00
18160;DHT22;9205;52.032;4.314;2023-04-03T01:03:13;5.40;1.00
18160;DHT22;9205;52.032;4.314;2023-04-03T01:05:40;5.50;1.00
18160;DHT22;9205;52.032;4.314;2023-04-03T01:08:08;5.50;1.00
18160;DHT22;9205;52.032;4.314;2023-04-03T01:10:35;5.40;1.00
18160;DHT22;9205;52.032;4.314;2023-04-03T01:13:18;5.40;1.00
18160;DHT22;9205;52.032;4.314;2023-04-03T01:15:51;5.40;1.00
18160;DHT22;9205;52.032;4.314;2023-04-03T01:18:19;5.40;1.00
18160;DHT22;9205;52.032;4.314;2023-04-03T01:24:21;5.30;99.90
18160;DHT22;9205;52.032;4.314;2023-04-03T01:26:55;5.20;99.90
18160;DHT22;9205;52.032;4.314;2023-04-03T01:29:23;5.30;56.40
18160;DHT22;9205;52.032;4.314;2023-04-03T01:31:55;5.30;99.90
18160;DHT22;9205;52.032;4.314;2023-04-03T01:34:24;5.20;99.90
18160;DHT22;9205;52.032;4.314;2023-04-03T01:36:52;5.20;99.90
18160;DHT22;9205;52.032;4.314;2023-04-03T01:39:21;5.20;99.90
18160;DHT22;9205;52.032;4.314;2023-04-03T01:41:49;5.20;99.90
18160;DHT22;9205;52.032;4.314;2023-04-03T01:44:23;5.10;99.90
18160;DHT22;9205;52.032;4.314;2023-04-03T01:46:53;5.10;99.90
18160;DHT22;9205;52.032;4.314;2023-04-03T01:49:22;5.10;99.90
18160;DHT22;9205;52.032;4.314;2023-04-03T01:51:49;5.10;99.90
18160;DHT22;9205;52.032;4.314;2023-04-03T01:54:16;5.10;99.90
18160;DHT22;9205;52.032;4.314;2023-04-03T01:56:43;5.00;99.90
18160;DHT22;9205;52.032;4.314;2023-04-03T01:59:11;5.00;99.90
18160;DHT22;9205;52.032;4.314;2023-04-03T02:01:38;4.90;1.00
18160;DHT22;9205;52.032;4.314;2023-04-03T02:04:06;4.90;1.00
18160;DHT22;9205;52.032;4.314;2023-04-03T02:06:34;4.90;1.00
18160;DHT22;9205;52.032;4.314;2023-04-03T02:09:01;4.90;1.00
18160;DHT22;9205;52.032;4.314;2023-04-03T02:11:30;4.90;1.00
18160;DHT22;9205;52.032;4.314;2023-04-03T02:13:57;4.90;1.00
18160;DHT22;9205;52.032;4.314;2023-04-03T02:16:24;4.90;1.00
18160;DHT22;9205;52.032;4.314;2023-04-03T02:18:51;4.80;1.00
18160;DHT22;9205;52.032;4.314;2023-04-03T02:21:20;4.80;1.00
18160;DHT22;9205;52.032;4.314;2023-04-03T02:23:47;4.80;1.00
18160;DHT22;9205;52.032;4.314;2023-04-03T02:26:16;4.80;1.00
18160;DHT22;9205;52.032;4.314;2023-04-03T02:28:44;4.80;1.00
18160;DHT22;9205;52.032;4.314;2023-04-03T02:31:12;4.70;1.00
18160;DHT22;9205;52.032;4.314;2023-04-03T02:33:42;4.70;1.00
18160;DHT22;9205;52.032;4.314;2023-04-03T02:36:12;4.70;1.00
18160;DHT22;9205;52.032;4.314;2023-04-03T02:38:43;4.70;1.00
18160;DHT22;9205;52.032;4.314;2023-04-03T02:41:11;4.70;78.70
18160;DHT22;9205;52.032;4.314;2023-04-03T02:43:39;4.70;62.20
18160;DHT22;9205;52.032;4.314;2023-04-03T02:46:07;4.60;57.60
18160;DHT22;9205;52.032;4.314;2023-04-03T02:48:34;4.70;99.90
18160;DHT22;9205;52.032;4.314;2023-04-03T02:51:03;4.70;99.90
18160;DHT22;9205;52.032;4.314;2023-04-03T02:53:30;4.70;99.90
18160;DHT22;9205;52.032;4.314;2023-04-03T02:56:04;4.60;99.90
18160;DHT22;9205;52.032;4.314;2023-04-03T02:58:31;4.50;99.90
18160;DHT22;9205;52.032;4.314;2023-04-03T03:01:00;4.60;99.90
18160;DHT22;9205;52.032;4.314;2023-04-03T03:03:27;4.50;99.90
18160;DHT22;9205;52.032;4.314;2023-04-03T03:06:02;4.50;99.90
18160;DHT22;9205;52.032;4.314;2023-04-03T03:08:30;4.60;99.90
18160;DHT22;9205;52.032;4.314;2023-04-03T03:10:57;4.50;99.90
18160;DHT22;9205;52.032;4.314;2023-04-03T03:13:26;4.50;99.90
18160;DHT22;9205;52.032;4.314;2023-04-03T03:15:54;4.40;99.90
18160;DHT22;9205;52.032;4.314;2023-04-03T03:18:21;4.40;99.90
18160;DHT22;9205;52.032;4.314;2023-04-03T03:20:51;4.40;1.00
18160;DHT22;9205;52.032;4.314;2023-04-03T03:23:20;4.40;1.00
18160;DHT22;9205;52.032;4.314;2023-04-03T03:25:49;4.30;1.00
18160;DHT22;9205;52.032;4.314;2023-04-03T03:28:16;4.30;1.00
18160;DHT22;9205;52.032;4.314;2023-04-03T03:30:44;4.30;1.00
18160;DHT22;9205;52.032;4.314;2023-04-03T03:33:11;4.40;1.00
18160;DHT22;9205;52.032;4.314;2023-04-03T03:35:39;4.30;1.00
18160;DHT22;9205;52.032;4.314;2023-04-03T03:38:07;4.20;1.00
18160;DHT22;9205;52.032;4.314;2023-04-03T03:40:34;4.20;1.00
18160;DHT22;9205;52.032;4.314;2023-04-03T03:43:02;4.30;1.00
18160;DHT22;9205;52.032;4.314;2023-04-03T03:45:30;4.20;1.00
18160;DHT22;9205;52.032;4.314;2023-04-03T03:47:59;4.20;1.00
18160;DHT22;9205;52.032;4.314;2023-04-03T03:50:26;4.20;1.00
18160;DHT22;9205;52.032;4.314;2023-04-03T03:52:53;4.20;1.00
18160;DHT22;9205;52.032;4.314;2023-04-03T03:55:21;4.20;1.00
18160;DHT22;9205;52.032;4.314;2023-04-03T03:57:52;4.20;1.00
18160;DHT22;9205;52.032;4.314;2023-04-03T04:00:20;4.20;1.00
18160;DHT22;9205;52.032;4.314;2023-04-03T04:02:52;4.20;1.00
18160;DHT22;9205;52.032;4.314;2023-04-03T04:05:23;4.10;1.00
18160;DHT22;9205;52.032;4.314;2023-04-03T04:07:52;4.20;1.00
18160;DHT22;9205;52.032;4.314;2023-04-03T04:10:20;4.20;1.00
18160;DHT22;9205;52.032;4.314;2023-04-03T04:12:47;4.10;1.00
18160;DHT22;9205;52.032;4.314;2023-04-03T04:15:19;4.00;1.00
18160;DHT22;9205;52.032;4.314;2023-04-03T04:17:48;4.00;1.00
18160;DHT22;9205;52.032;4.314;2023-04-03T04:20:15;4.10;1.00
18160;DHT22;9205;52.032;4.314;2023-04-03T04:22:44;4.10;53.80
18160;DHT22;9205;52.032;4.314;2023-04-03T04:25:11;4.10;89.20
18160;DHT22;9205;52.032;4.314;2023-04-03T04:27:39;4.10;99.90
18160;DHT22;9205;52.032;4.314;2023-04-03T04:30:08;4.00;99.90
18160;DHT22;9205;52.032;4.314;2023-04-03T04:32:37;4.00;99.90
18160;DHT22;9205;52.032;4.314;2023-04-03T04:35:04;4.00;99.90
18160;DHT22;9205;52.032;4.314;2023-04-03T04:37:34;4.00;99.90
18160;DHT22;9205;52.032;4.314;2023-04-03T04:40:04;4.00;99.90
18160;DHT22;9205;52.032;4.314;2023-04-03T04:42:33;4.00;99.90
18160;DHT22;9205;52.032;4.314;2023-04-03T04:45:00;4.00;99.90
18160;DHT22;9205;52.032;4.314;2023-04-03T04:47:28;4.00;99.90
18160;DHT22;9205;52.032;4.314;2023-04-03T04:49:56;3.90;99.90
18160;DHT22;9205;52.032;4.314;2023-04-03T04:52:23;3.90;99.90
18160;DHT22;9205;52.032;4.314;2023-04-03T04:54:50;3.90;99.90
18160;DHT22;9205;52.032;4.314;2023-04-03T04:57:19;3.90;99.90
18160;DHT22;9205;52.032;4.314;2023-04-03T04:59:46;3.90;99.90
18160;DHT22;9205;52.032;4.314;2023-04-03T05:02:14;3.90;99.90
18160;DHT22;9205;52.032;4.314;2023-04-03T05:04:43;3.90;99.90
18160;DHT22;9205;52.032;4.314;2023-04-03T05:07:16;3.90;99.90
18160;DHT22;9205;52.032;4.314;2023-04-03T05:09:43;3.90;99.90
18160;DHT22;9205;52.032;4.314;2023-04-03T05:12:12;3.90;99.90
18160;DHT22;9205;52.032;4.314;2023-04-03T05:14:48;3.70;99.90
18160;DHT22;9205;52.032;4.314;2023-04-03T05:17:15;3.90;99.90
18160;DHT22;9205;52.032;4.314;2023-04-03T05:19:48;3.90;99.90
18160;DHT22;9205;52.032;4.314;2023-04-03T05:22:17;3.90;1.00
18160;DHT22;9205;52.032;4.314;2023-04-03T05:24:44;3.80;1.00
18160;DHT22;9205;52.032;4.314;2023-04-03T05:27:11;3.80;1.00
18160;DHT22;9205;52.032;4.314;2023-04-03T05:29:43;3.90;1.00
18160;DHT22;9205;52.032;4.314;2023-04-03T05:32:14;3.80;1.00
18160;DHT22;9205;52.032;4.314;2023-04-03T05:34:43;3.90;1.00
18160;DHT22;9205;52.032;4.314;2023-04-03T05:37:11;3.80;1.00
18160;DHT22;9205;52.032;4.314;2023-04-03T05:39:39;3.80;1.00
18160;DHT22;9205;52.032;4.314;2023-04-03T05:42:08;3.70;1.00
18160;DHT22;9205;52.032;4.314;2023-04-03T05:44:37;3.80;1.00
18160;DHT22;9205;52.032;4.314;2023-04-03T05:47:04;3.80;1.00
18160;DHT22;9205;52.032;4.314;2023-04-03T05:49:34;3.80;1.00
18160;DHT22;9205;52.032;4.314;2023-04-03T05:52:08;3.80;1.00
18160;DHT22;9205;52.032;4.314;2023-04-03T05:54:44;3.80;1.00
18160;DHT22;9205;52.032;4.314;2023-04-03T05:57:18;3.70;1.00
18160;DHT22;9205;52.032;4.314;2023-04-03T05:59:47;3.80;1.00
18160;DHT22;9205;52.032;4.314;2023-04-03T06:02:17;3.90;1.00
18160;DHT22;9205;52.032;4.314;2023-04-03T06:04:48;3.90;1.00
18160;DHT22;9205;52.032;4.314;2023-04-03T06:07:18;3.90;1.00
18160;DHT22;9205;52.032;4.314;2023-04-03T06:09:49;3.80;1.00
18160;DHT22;9205;52.032;4.314;2023-04-03T06:12:18;3.90;1.00
18160;DHT22;9205;52.032;4.314;2023-04-03T06:14:46;3.90;1.00
18160;DHT22;9205;52.032;4.314;2023-04-03T06:17:14;3.90;1.00
18160;DHT22;9205;52.032;4.314;2023-04-03T06:19:43;4.00;1.00
18160;DHT22;9205;52.032;4.314;2023-04-03T06:22:12;3.90;1.00
18160;DHT22;9205;52.032;4.314;2023-04-03T06:24:40;4.00;1.00
18160;DHT22;9205;52.032;4.314;2023-04-03T06:27:10;4.00;1.00
18160;DHT22;9205;52.032;4.314;2023-04-03T06:29:38;4.00;1.00
18160;DHT22;9205;52.032;4.314;2023-04-03T06:32:05;4.00;1.00
18160;DHT22;9205;52.032;4.314;2023-04-03T06:34:32;4.10;1.00
18160;DHT22;9205;52.032;4.314;2023-04-03T06:37:00;4.10;1.00
18160;DHT22;9205;52.032;4.314;2023-04-03T06:39:29;4.10;1.00
18160;DHT22;9205;52.032;4.314;2023-04-03T06:41:56;4.20;1.00
18160;DHT22;9205;52.032;4.314;2023-04-03T06:44:35;4.20;1.00
18160;DHT22;9205;52.032;4.314;2023-04-03T06:47:02;4.30;1.00
18160;DHT22;9205;52.032;4.314;2023-04-03T06:49:30;4.40;1.00
18160;DHT22;9205;52.032;4.314;2023-04-03T06:51:57;4.40;1.00
18160;DHT22;9205;52.032;4.314;2023-04-03T06:54:25;4.60;1.00
18160;DHT22;9205;52.032;4.314;2023-04-03T06:56:53;4.70;1.00
18160;DHT22;9205;52.032;4.314;2023-04-03T06:59:20;4.80;1.00
18160;DHT22;9205;52.032;4.314;2023-04-03T07:01:48;4.90;1.00
18160;DHT22;9205;52.032;4.314;2023-04-03T07:04:15;4.90;99.90
18160;DHT22;9205;52.032;4.314;2023-04-03T07:06:42;5.00;99.90
18160;DHT22;9205;52.032;4.314;2023-04-03T07:09:10;5.10;99.90
18160;DHT22;9205;52.032;4.314;2023-04-03T07:11:38;5.10;99.90
18160;DHT22;9205;52.032;4.314;2023-04-03T07:14:06;5.10;1.00
18160;DHT22;9205;52.032;4.314;2023-04-03T07:16:34;5.10;1.00
18160;DHT22;9205;52.032;4.314;2023-04-03T07:19:02;5.30;1.00
18160;DHT22;9205;52.032;4.314;2023-04-03T07:21:29;5.40;1.00
18160;DHT22;9205;52.032;4.314;2023-04-03T07:23:57;5.40;1.00
18160;DHT22;9205;52.032;4.314;2023-04-03T07:26:24;5.50;1.00
18160;DHT22;9205;52.032;4.314;2023-04-03T07:28:51;5.40;1.00
18160;DHT22;9205;52.032;4.314;2023-04-03T07:31:20;5.30;99.90
18160;DHT22;9205;52.032;4.314;2023-04-03T07:33:47;5.40;61.50
18160;DHT22;9205;52.032;4.314;2023-04-03T07:36:17;5.50;55.10
18160;DHT22;9205;52.032;4.314;2023-04-03T07:38:46;5.60;99.90
18160;DHT22;9205;52.032;4.314;2023-04-03T07:41:15;5.70;99.90
18160;DHT22;9205;52.032;4.314;2023-04-03T07:43:44;5.60;1.00
18160;DHT22;9205;52.032;4.314;2023-04-03T07:46:12;5.60;1.00
18160;DHT22;9205;52.032;4.314;2023-04-03T07:48:40;5.60;1.00
18160;DHT22;9205;52.032;4.314;2023-04-03T07:51:08;5.60;1.00
18160;DHT22;9205;52.032;4.314;2023-04-03T07:53:36;5.60;1.00
18160;DHT22;9205;52.032;4.314;2023-04-03T07:56:04;5.80;1.00
18160;DHT22;9205;52.032;4.314;2023-04-03T07:58:32;5.90;1.00
18160;DHT22;9205;52.032;4.314;2023-04-03T08:00:59;5.80;99.90
18160;DHT22;9205;52.032;4.314;2023-04-03T08:03:27;5.90;99.90
18160;DHT22;9205;52.032;4.314;2023-04-03T08:06:04;6.10;99.90
18160;DHT22;9205;52.032;4.314;2023-04-03T08:08:34;6.00;1.00
18160;DHT22;9205;52.032;4.314;2023-04-03T08:11:01;6.20;1.00
18160;DHT22;9205;52.032;4.314;2023-04-03T08:13:31;6.30;99.90
18160;DHT22;9205;52.032;4.314;2023-04-03T08:16:08;6.40;95.00
18160;DHT22;9205;52.032;4.314;2023-04-03T08:18:36;6.60;1.00
18160;DHT22;9205;52.032;4.314;2023-04-03T08:21:10;6.60;1.00
18160;DHT22;9205;52.032;4.314;2023-04-03T08:23:39;6.80;1.00
18160;DHT22;9205;52.032;4.314;2023-04-03T08:26:09;6.80;99.90
18160;DHT22;9205;52.032;4.314;2023-04-03T08:28:38;6.80;1.00
18160;DHT22;9205;52.032;4.314;2023-04-03T08:31:07;6.80;1.00
18160;DHT22;9205;52.032;4.314;2023-04-03T08:33:38;6.70;1.00
18160;DHT22;9205;52.032;4.314;2023-04-03T08:36:07;6.90;1.00
18160;DHT22;9205;52.032;4.314;2023-04-03T08:38:43;7.00;1.00
18160;DHT22;9205;52.032;4.314;2023-04-03T08:41:14;7.10;1.00
18160;DHT22;9205;52.032;4.314;2023-04-03T08:44:02;7.20;1.00
18160;DHT22;9205;52.032;4.314;2023-04-03T08:46:43;7.20;1.00
18160;DHT22;9205;52.032;4.314;2023-04-03T08:49:26;7.30;1.00
18160;DHT22;9205;52.032;4.314;2023-04-03T08:52:00;7.40;1.00
18160;DHT22;9205;52.032;4.314;2023-04-03T08:54:34;7.40;1.00
18160;DHT22;9205;52.032;4.314;2023-04-03T08:57:10;7.40;99.90
18160;DHT22;9205;52.032;4.314;2023-04-03T08:59:39;7.30;99.90
18160;DHT22;9205;52.032;4.314;2023-04-03T09:02:21;7.40;99.90
18160;DHT22;9205;52.032;4.314;2023-04-03T09:04:55;7.50;99.90
18160;DHT22;9205;52.032;4.314;2023-04-03T09:07:30;7.60;99.90
18160;DHT22;9205;52.032;4.314;2023-04-03T09:10:04;7.60;35.30
18160;DHT22;9205;52.032;4.314;2023-04-03T09:12:36;7.80;70.20
18160;DHT22;9205;52.032;4.314;2023-04-03T09:15:14;7.80;1.00
18160;DHT22;9205;52.032;4.314;2023-04-03T09:17:53;8.00;1.00
18160;DHT22;9205;52.032;4.314;2023-04-03T09:20:36;8.00;1.00
18160;DHT22;9205;52.032;4.314;2023-04-03T09:23:19;7.90;1.00
18160;DHT22;9205;52.032;4.314;2023-04-03T09:25:54;7.90;1.00
18160;DHT22;9205;52.032;4.314;2023-04-03T09:28:30;7.90;1.00
18160;DHT22;9205;52.032;4.314;2023-04-03T09:31:00;8.20;1.00
18160;DHT22;9205;52.032;4.314;2023-04-03T09:33:29;8.20;1.00
18160;DHT22;9205;52.032;4.314;2023-04-03T09:35:57;8.30;1.00
18160;DHT22;9205;52.032;4.314;2023-04-03T09:38:25;8.20;1.00
18160;DHT22;9205;52.032;4.314;2023-04-03T09:41:05;8.20;1.00
18160;DHT22;9205;52.032;4.314;2023-04-03T09:43:34;8.30;1.00
18160;DHT22;9205;52.032;4.314;2023-04-03T09:46:24;8.40;1.00
18160;DHT22;9205;52.032;4.314;2023-04-03T09:48:56;8.50;1.00
18160;DHT22;9205;52.032;4.314;2023-04-03T09:51:26;8.50;99.90
18160;DHT22;9205;52.032;4.314;2023-04-03T09:53:56;8.50;99.90
18160;DHT22;9205;52.032;4.314;2023-04-03T09:56:26;8.60;99.90
18160;DHT22;9205;52.032;4.314;2023-04-03T09:59:13;8.60;99.90
18160;DHT22;9205;52.032;4.314;2023-04-03T10:01:43;8.50;99.90
18160;DHT22;9205;52.032;4.314;2023-04-03T10:04:37;8.60;99.90
18160;DHT22;9205;52.032;4.314;2023-04-03T10:07:31;8.60;99.90
18160;DHT22;9205;52.032;4.314;2023-04-03T10:10:16;8.60;99.90
18160;DHT22;9205;52.032;4.314;2023-04-03T10:12:46;8.70;99.90
18160;DHT22;9205;52.032;4.314;2023-04-03T10:15:14;8.70;99.90
18160;DHT22;9205;52.032;4.314;2023-04-03T10:17:51;8.80;99.90
18160;DHT22;9205;52.032;4.314;2023-04-03T10:20:30;8.70;99.90
18160;DHT22;9205;52.032;4.314;2023-04-03T10:23:15;8.70;99.90
18160;DHT22;9205;52.032;4.314;2023-04-03T10:25:55;8.90;99.90
18160;DHT22;9205;52.032;4.314;2023-04-03T10:28:37;8.90;99.90
18160;DHT22;9205;52.032;4.314;2023-04-03T10:31:17;8.90;99.90
18160;DHT22;9205;52.032;4.314;2023-04-03T10:33:56;8.90;99.90
18160;DHT22;9205;52.032;4.314;2023-04-03T10:36:36;8.80;99.90
18160;DHT22;9205;52.032;4.314;2023-04-03T10:39:18;8.90;99.90
18160;DHT22;9205;52.032;4.314;2023-04-03T10:42:03;8.90;99.90
18160;DHT22;9205;52.032;4.314;2023-04-03T10:44:42;8.90;99.90
18160;DHT22;9205;52.032;4.314;2023-04-03T10:47:28;8.90;99.90
18160;DHT22;9205;52.032;4.314;2023-04-03T10:50:13;8.90;99.90
18160;DHT22;9205;52.032;4.314;2023-04-03T10:52:56;9.10;99.90
18160;DHT22;9205;52.032;4.314;2023-04-03T10:55:34;9.30;99.90
18160;DHT22;9205;52.032;4.314;2023-04-03T10:58:06;9.40;99.90
18160;DHT22;9205;52.032;4.314;2023-04-03T11:00:46;9.40;99.90
18160;DHT22;9205;52.032;4.314;2023-04-03T11:03:26;9.50;99.90
18160;DHT22;9205;52.032;4.314;2023-04-03T11:06:01;9.40;99.90
18160;DHT22;9205;52.032;4.314;2023-04-03T11:08:36;9.70;99.90
18160;DHT22;9205;52.032;4.314;2023-04-03T11:11:09;9.90;99.90
18160;DHT22;9205;52.032;4.314;2023-04-03T11:13:46;10.20;99.90
18160;DHT22;9205;52.032;4.314;2023-04-03T11:16:24;10.70;98.00
18160;DHT22;9205;52.032;4.314;2023-04-03T11:18:56;11.90;99.90
18160;DHT22;9205;52.032;4.314;2023-04-03T11:21:29;12.00;33.00
18160;DHT22;9205;52.032;4.314;2023-04-03T11:24:03;12.50;29.30
18160;DHT22;9205;52.032;4.314;2023-04-03T11:26:40;12.80;1.00
18160;DHT22;9205;52.032;4.314;2023-04-03T11:29:14;12.50;1.00
18160;DHT22;9205;52.032;4.314;2023-04-03T11:32:02;12.30;1.00
18160;DHT22;9205;52.032;4.314;2023-04-03T11:34:38;12.30;1.00
18160;DHT22;9205;52.032;4.314;2023-04-03T11:37:15;11.80;1.00
18160;DHT22;9205;52.032;4.314;2023-04-03T11:39:54;11.00;1.00
18160;DHT22;9205;52.032;4.314;2023-04-03T11:42:30;10.80;1.00
18160;DHT22;9205;52.032;4.314;2023-04-03T11:45:46;10.90;1.00
18160;DHT22;9205;52.032;4.314;2023-04-03T11:48:50;10.90;1.00
18160;DHT22;9205;52.032;4.314;2023-04-03T11:51:45;10.60;1.00
18160;DHT22;9205;52.032;4.314;2023-04-03T11:54:47;10.60;1.00
18160;DHT22;9205;52.032;4.314;2023-04-03T11:57:49;10.70;1.00
18160;DHT22;9205;52.032;4.314;2023-04-03T12:00:50;10.50;1.00
18160;DHT22;9205;52.032;4.314;2023-04-03T12:04:06;10.40;1.00
18160;DHT22;9205;52.032;4.314;2023-04-03T12:10:16;10.50;1.00
18160;DHT22;9205;52.032;4.314;2023-04-03T12:12:56;10.60;1.00
18160;DHT22;9205;52.032;4.314;2023-04-03T12:15:54;10.80;1.00
18160;DHT22;9205;52.032;4.314;2023-04-03T12:18:57;10.70;1.00
18160;DHT22;9205;52.032;4.314;2023-04-03T12:24:51;11.10;1.00
18160;DHT22;9205;52.032;4.314;2023-04-03T12:27:25;11.00;1.00
18160;DHT22;9205;52.032;4.314;2023-04-03T12:30:16;10.80;1.00
18160;DHT22;9205;52.032;4.314;2023-04-03T12:33:13;10.80;1.00
18160;DHT22;9205;52.032;4.314;2023-04-03T12:35:57;10.80;1.00
18160;DHT22;9205;52.032;4.314;2023-04-03T12:38:49;11.00;1.00
18160;DHT22;9205;52.032;4.314;2023-04-03T12:41:37;11.20;1.00
18160;DHT22;9205;52.032;4.314;2023-04-03T12:44:30;11.30;1.00
18160;DHT22;9205;52.032;4.314;2023-04-03T12:47:21;11.20;1.00
18160;DHT22;9205;52.032;4.314;2023-04-03T12:49:53;10.80;1.00
18160;DHT22;9205;52.032;4.314;2023-04-03T12:52:36;11.00;1.00
18160;DHT22;9205;52.032;4.314;2023-04-03T12:55:14;11.50;1.00
18160;DHT22;9205;52.032;4.314;2023-04-03T12:57:43;11.50;1.00
18160;DHT22;9205;52.032;4.314;2023-04-03T13:00:29;11.50;1.00
18160;DHT22;9205;52.032;4.314;2023-04-03T13:03:00;12.00;1.00
18160;DHT22;9205;52.032;4.314;2023-04-03T13:05:31;11.90;1.00
18160;DHT22;9205;52.032;4.314;2023-04-03T13:08:02;11.20;1.00
18160;DHT22;9205;52.032;4.314;2023-04-03T13:10:32;11.40;1.00
18160;DHT22;9205;52.032;4.314;2023-04-03T13:13:17;11.60;1.00
18160;DHT22;9205;52.032;4.314;2023-04-03T13:15:47;11.90;1.00
18160;DHT22;9205;52.032;4.314;2023-04-03T13:18:28;12.20;1.00
18160;DHT22;9205;52.032;4.314;2023-04-03T13:21:01;11.70;1.00
18160;DHT22;9205;52.032;4.314;2023-04-03T13:23:32;11.50;1.00
18160;DHT22;9205;52.032;4.314;2023-04-03T13:26:03;11.50;1.00
18160;DHT22;9205;52.032;4.314;2023-04-03T13:28:33;11.40;1.00
18160;DHT22;9205;52.032;4.314;2023-04-03T13:31:08;11.50;1.00
18160;DHT22;9205;52.032;4.314;2023-04-03T13:33:54;11.70;1.00
18160;DHT22;9205;52.032;4.314;2023-04-03T13:36:27;11.90;1.00
18160;DHT22;9205;52.032;4.314;2023-04-03T13:39:00;11.80;1.00
18160;DHT22;9205;52.032;4.314;2023-04-03T13:41:31;11.80;1.00
18160;DHT22;9205;52.032;4.314;2023-04-03T13:44:23;11.80;1.00
18160;DHT22;9205;52.032;4.314;2023-04-03T13:46:55;11.70;1.00
18160;DHT22;9205;52.032;4.314;2023-04-03T13:49:30;11.40;1.00
18160;DHT22;9205;52.032;4.314;2023-04-03T13:52:02;11.50;1.00
18160;DHT22;9205;52.032;4.314;2023-04-03T13:54:33;11.40;1.00
18160;DHT22;9205;52.032;4.314;2023-04-03T13:57:10;11.70;1.00
18160;DHT22;9205;52.032;4.314;2023-04-03T13:59:39;11.90;1.00
18160;DHT22;9205;52.032;4.314;2023-04-03T14:02:15;12.00;1.00
18160;DHT22;9205;52.032;4.314;2023-04-03T14:04:48;12.20;1.00
18160;DHT22;9205;52.032;4.314;2023-04-03T14:07:23;12.00;1.00
18160;DHT22;9205;52.032;4.314;2023-04-03T14:09:52;11.50;1.00
18160;DHT22;9205;52.032;4.314;2023-04-03T14:12:24;11.70;1.00
18160;DHT22;9205;52.032;4.314;2023-04-03T14:14:54;11.70;1.00
18160;DHT22;9205;52.032;4.314;2023-04-03T14:17:25;11.90;1.00
18160;DHT22;9205;52.032;4.314;2023-04-03T14:19:54;11.90;1.00
18160;DHT22;9205;52.032;4.314;2023-04-03T14:22:26;11.70;1.00
18160;DHT22;9205;52.032;4.314;2023-04-03T14:24:55;11.80;1.00
18160;DHT22;9205;52.032;4.314;2023-04-03T14:27:25;11.70;1.00
18160;DHT22;9205;52.032;4.314;2023-04-03T14:29:56;11.80;1.00
18160;DHT22;9205;52.032;4.314;2023-04-03T14:32:25;11.70;1.00
18160;DHT22;9205;52.032;4.314;2023-04-03T14:34:53;11.60;1.00
18160;DHT22;9205;52.032;4.314;2023-04-03T14:37:26;11.50;1.00
18160;DHT22;9205;52.032;4.314;2023-04-03T14:39:57;11.60;1.00
18160;DHT22;9205;52.032;4.314;2023-04-03T14:42:28;11.80;1.00
18160;DHT22;9205;52.032;4.314;2023-04-03T14:44:58;12.10;1.00
18160;DHT22;9205;52.032;4.314;2023-04-03T14:47:27;11.90;1.00
18160;DHT22;9205;52.032;4.314;2023-04-03T14:49:56;11.80;1.00
18160;DHT22;9205;52.032;4.314;2023-04-03T14:52:27;11.50;1.00
18160;DHT22;9205;52.032;4.314;2023-04-03T14:54:57;11.40;1.00
18160;DHT22;9205;52.032;4.314;2023-04-03T14:57:27;11.40;1.00
18160;DHT22;9205;52.032;4.314;2023-04-03T14:59:56;11.10;1.00
18160;DHT22;9205;52.032;4.314;2023-04-03T15:02:29;11.30;1.00
18160;DHT22;9205;52.032;4.314;2023-04-03T15:04:59;11.30;1.00
18160;DHT22;9205;52.032;4.314;2023-04-03T15:07:33;11.30;1.00
18160;DHT22;9205;52.032;4.314;2023-04-03T15:10:09;11.20;1.00
18160;DHT22;9205;52.032;4.314;2023-04-03T15:12:43;11.10;1.00
18160;DHT22;9205;52.032;4.314;2023-04-03T15:15:12;11.20;1.00
18160;DHT22;9205;52.032;4.314;2023-04-03T15:17:40;11.30;1.00
18160;DHT22;9205;52.032;4.314;2023-04-03T15:20:13;11.20;1.00
18160;DHT22;9205;52.032;4.314;2023-04-03T15:22:43;11.00;1.00
18160;DHT22;9205;52.032;4.314;2023-04-03T15:25:10;11.10;1.00
18160;DHT22;9205;52.032;4.314;2023-04-03T15:27:38;11.10;1.00
18160;DHT22;9205;52.032;4.314;2023-04-03T15:30:11;11.40;1.00
18160;DHT22;9205;52.032;4.314;2023-04-03T15:32:41;11.30;1.00
18160;DHT22;9205;52.032;4.314;2023-04-03T15:35:09;11.30;1.00
18160;DHT22;9205;52.032;4.314;2023-04-03T15:37:36;11.40;1.00
18160;DHT22;9205;52.032;4.314;2023-04-03T15:40:06;11.30;1.00
18160;DHT22;9205;52.032;4.314;2023-04-03T15:42:34;11.30;1.00
18160;DHT22;9205;52.032;4.314;2023-04-03T15:45:02;11.20;1.00
18160;DHT22;9205;52.032;4.314;2023-04-03T15:47:29;11.20;1.00
18160;DHT22;9205;52.032;4.314;2023-04-03T15:49:57;11.20;1.00
18160;DHT22;9205;52.032;4.314;2023-04-03T15:52:24;11.10;1.00
18160;DHT22;9205;52.032;4.314;2023-04-03T15:54:51;11.10;1.00
18160;DHT22;9205;52.032;4.314;2023-04-03T15:57:20;11.10;1.00
18160;DHT22;9205;52.032;4.314;2023-04-03T15:59:51;11.10;1.00
18160;DHT22;9205;52.032;4.314;2023-04-03T16:02:18;11.10;1.00
18160;DHT22;9205;52.032;4.314;2023-04-03T16:04:46;11.20;1.00
18160;DHT22;9205;52.032;4.314;2023-04-03T16:07:14;11.20;1.00
18160;DHT22;9205;52.032;4.314;2023-04-03T16:09:41;11.20;1.00
18160;DHT22;9205;52.032;4.314;2023-04-03T16:12:08;11.10;1.00
18160;DHT22;9205;52.032;4.314;2023-04-03T16:14:37;11.10;1.00
18160;DHT22;9205;52.032;4.314;2023-04-03T16:17:04;11.30;1.00
18160;DHT22;9205;52.032;4.314;2023-04-03T16:19:31;11.40;1.00
18160;DHT22;9205;52.032;4.314;2023-04-03T16:21:58;11.30;1.00
18160;DHT22;9205;52.032;4.314;2023-04-03T16:24:26;11.10;1.00
18160;DHT22;9205;52.032;4.314;2023-04-03T16:26:54;11.10;1.00
18160;DHT22;9205;52.032;4.314;2023-04-03T16:29:22;11.30;1.00
18160;DHT22;9205;52.032;4.314;2023-04-03T16:31:50;11.30;1.00
18160;DHT22;9205;52.032;4.314;2023-04-03T16:34:17;11.20;1.00
18160;DHT22;9205;52.032;4.314;2023-04-03T16:36:45;11.20;1.00
18160;DHT22;9205;52.032;4.314;2023-04-03T16:39:12;11.20;1.00
18160;DHT22;9205;52.032;4.314;2023-04-03T16:41:39;11.20;1.00
18160;DHT22;9205;52.032;4.314;2023-04-03T16:44:06;11.20;1.00
18160;DHT22;9205;52.032;4.314;2023-04-03T16:46:34;11.20;1.00
18160;DHT22;9205;52.032;4.314;2023-04-03T16:49:03;11.10;1.00